Terminal Aerodrome Forecast
Issued by NWS

Home | Current Version | Previous Version | Graphics & Text | Print | Product List | Glossary On
Versions: 1 2 3 4 5 6 7 8 9 10 11 12 13 14 15 16 17 18 19 20 21 22 23 24 25 26 27 28 29 30 31 32 33
000
FTUS43 KLOT 240907 AAA
TAFORD
TAF AMD
KORD 240907Z 2409/2512 05013KT 5SM BR VCSH OVC004
      TEMPO 2409/2412 3SM SHRA
     FM241200 04011KT 2SM -DZ BR VCSH OVC004
     FM241500 02008KT 1 1/2SM -DZ BR OVC003
     FM241900 34007KT 3SM BR VCSH OVC007
     FM242200 28008KT P6SM SCT007 OVC015
     FM250300 29012G18KT P6SM OVC022
     FM250700 29012KT 2SM -SN BR OVC015=

USA.gov is the U.S. government's official web portal to all federal, state and local government web resources and services.